Time;durP1;ratioP1;P1;durP2;ratioP2;P2;SDS_P1;SDS_P2;PMS_P1;PMS_P2;Temp;Humidity;BMP_temperature;BMP_pressure;BME280_temperature;BME280_humidity;BME280_pressure;Samples;Min_cycle;Max_cycle;Signal;HPM_P1;HPM_P2
2023/01/08 00:00:55;;;;;;;3.73;2.80;;;8.80;99.90;;;;;;4986723;28;20304;-68
2023/01/08 00:03:23;;;;;;;3.00;2.77;;;8.70;99.90;;;;;;4986524;28;20571;-68
2023/01/08 00:05:50;;;;;;;2.50;2.33;;;8.80;99.90;;;;;;4986891;28;20305;-68
2023/01/08 00:08:17;;;;;;;3.17;2.70;;;8.70;99.90;;;;;;4988016;28;20223;-69
2023/01/08 00:10:44;;;;;;;3.00;2.80;;;8.80;99.90;;;;;;4988229;28;20300;-68
2023/01/08 00:13:11;;;;;;;2.83;2.63;;;8.70;99.90;;;;;;4988197;28;20647;-68
2023/01/08 00:15:38;;;;;;;2.20;2.10;;;8.70;99.90;;;;;;4983141;28;20289;-68
2023/01/08 00:18:06;;;;;;;2.27;2.17;;;8.80;99.90;;;;;;4968497;28;20247;-69
2023/01/08 00:20:33;;;;;;;2.30;2.20;;;8.80;99.90;;;;;;4969153;28;20286;-69
2023/01/08 00:23:00;;;;;;;2.17;2.07;;;8.80;99.90;;;;;;4980609;28;20293;-69
2023/01/08 00:25:27;;;;;;;2.20;2.10;;;8.80;99.90;;;;;;4988408;28;20232;-70
2023/01/08 00:27:54;;;;;;;2.03;1.93;;;8.80;99.90;;;;;;4996932;28;20602;-69
2023/01/08 00:30:20;;;;;;;2.27;2.17;;;8.80;99.90;;;;;;5008023;28;20602;-70
2023/01/08 00:32:47;;;;;;;2.40;2.30;;;8.80;99.90;;;;;;4997314;28;20208;-70
2023/01/08 00:35:16;;;;;;;2.30;2.10;;;8.80;99.90;;;;;;4988299;28;20212;-70
2023/01/08 00:37:43;;;;;;;2.10;2.00;;;8.80;99.90;;;;;;4988439;28;20216;-70
2023/01/08 00:40:11;;;;;;;4.33;2.10;;;8.80;99.90;;;;;;4988328;28;20433;-70
2023/01/08 00:42:38;;;;;;;2.20;2.10;;;8.70;99.90;;;;;;4987769;28;20224;-70
2023/01/08 00:45:06;;;;;;;2.70;2.10;;;8.70;99.90;;;;;;4988385;28;20308;-69
2023/01/08 00:47:33;;;;;;;2.77;2.57;;;8.70;99.90;;;;;;4969232;28;20306;-70
2023/01/08 00:49:59;;;;;;;2.03;1.90;;;8.70;99.90;;;;;;4968127;28;20299;-69
2023/01/08 00:52:28;;;;;;;2.00;1.90;;;8.70;99.90;;;;;;4972328;28;20298;-69
2023/01/08 00:54:55;;;;;;;2.20;2.10;;;8.70;99.90;;;;;;4987154;28;20217;-69
2023/01/08 00:57:21;;;;;;;3.57;1.90;;;8.70;99.90;;;;;;4987797;28;20206;-69
2023/01/08 00:59:48;;;;;;;2.40;2.30;;;8.70;99.90;;;;;;4987301;28;20304;-69
2023/01/08 01:02:15;;;;;;;3.67;2.30;;;8.70;99.90;;;;;;4987725;28;20233;-69
2023/01/08 01:04:42;;;;;;;2.47;2.37;;;8.70;99.90;;;;;;4987906;28;20298;-70
2023/01/08 01:07:09;;;;;;;2.30;2.20;;;8.70;99.90;;;;;;4987737;28;20210;-70
2023/01/08 01:09:37;;;;;;;2.00;1.90;;;8.60;99.90;;;;;;4991401;28;20422;-70
2023/01/08 01:12:05;;;;;;;2.40;2.30;;;8.60;99.90;;;;;;4992371;28;20293;-70
2023/01/08 01:14:32;;;;;;;2.63;2.43;;;8.60;99.90;;;;;;4991315;28;20238;-70
2023/01/08 01:16:59;;;;;;;2.30;2.20;;;8.60;99.90;;;;;;4977731;28;20297;-70
2023/01/08 01:19:25;;;;;;;2.80;2.60;;;8.50;99.90;;;;;;4982421;28;20202;-70
2023/01/08 01:21:52;;;;;;;2.60;2.40;;;8.50;99.90;;;;;;4991785;28;20325;-70
2023/01/08 01:24:20;;;;;;;2.50;2.37;;;8.50;99.90;;;;;;4991737;28;20324;-69
2023/01/08 01:26:49;;;;;;;2.50;2.30;;;8.50;99.90;;;;;;4991599;28;20300;-69
2023/01/08 01:29:15;;;;;;;2.57;2.43;;;8.50;99.90;;;;;;4991483;28;20230;-69
2023/01/08 01:31:42;;;;;;;2.50;2.40;;;8.50;99.90;;;;;;4991302;28;20206;-69
2023/01/08 01:34:10;;;;;;;2.80;2.60;;;8.50;99.90;;;;;;4991410;28;20309;-69
2023/01/08 01:36:37;;;;;;;2.77;2.67;;;8.40;99.90;;;;;;4991247;28;20293;-69
2023/01/08 01:39:05;;;;;;;2.57;2.47;;;8.40;99.90;;;;;;4991606;28;20228;-69
2023/01/08 01:41:36;;;;;;;2.60;2.50;;;8.40;99.90;;;;;;4991275;28;20323;-69
2023/01/08 01:44:37;;;;;;;2.67;2.47;;;8.40;99.90;;;;;;4991088;28;20253;-70
2023/01/08 01:47:09;;;;;;;3.00;2.40;;;8.40;99.90;;;;;;4976293;28;20297;-69
2023/01/08 01:49:39;;;;;;;3.10;2.80;;;8.30;99.90;;;;;;4983401;28;20317;-70
2023/01/08 01:52:08;;;;;;;3.10;2.90;;;8.30;99.90;;;;;;4990582;28;20296;-70
2023/01/08 01:54:36;;;;;;;2.63;2.53;;;8.30;99.90;;;;;;4991227;28;20293;-70
2023/01/08 01:57:04;;;;;;;2.83;2.63;;;8.30;99.90;;;;;;4990603;28;20330;-70
2023/01/08 01:59:31;;;;;;;2.40;2.30;;;8.30;99.90;;;;;;4990906;28;20298;-70
2023/01/08 02:02:00;;;;;;;2.77;2.57;;;8.20;99.90;;;;;;4990917;28;20305;-70
2023/01/08 02:04:27;;;;;;;3.00;2.90;;;8.20;99.90;;;;;;4990362;28;20295;-70
2023/01/08 02:07:01;;;;;;;3.00;2.80;;;8.20;99.90;;;;;;4990686;28;20301;-71
2023/01/08 02:09:40;;;;;;;2.97;2.77;;;8.20;99.90;;;;;;4990601;28;20582;-70
2023/01/08 02:12:16;;;;;;;3.27;2.97;;;8.20;99.90;;;;;;4990575;28;20202;-70
2023/01/08 02:14:59;;;;;;;3.07;2.87;;;8.20;99.90;;;;;;4990661;28;20360;-71
2023/01/08 02:17:35;;;;;;;3.10;2.90;;;8.10;99.90;;;;;;4990111;28;20254;-70
2023/01/08 02:20:08;;;;;;;2.80;2.70;;;8.10;99.90;;;;;;4990296;28;20878;-70
2023/01/08 02:22:46;;;;;;;2.73;2.53;;;8.10;99.90;;;;;;4990326;28;20202;-69
2023/01/08 02:25:20;;;;;;;3.20;3.00;;;8.00;99.90;;;;;;4990533;28;20237;-69
2023/01/08 02:27:51;;;;;;;3.03;2.83;;;8.00;99.90;;;;;;4990522;28;20202;-69
2023/01/08 02:30:18;;;;;;;2.97;2.83;;;8.00;99.90;;;;;;4990707;28;20230;-82
2023/01/08 02:32:45;;;;;;;3.10;2.90;;;8.00;99.90;;;;;;4990820;28;20238;-82
2023/01/08 02:35:12;;;;;;;3.00;2.80;;;8.00;99.90;;;;;;4990637;28;20873;-82
2023/01/08 02:37:40;;;;;;;3.30;3.00;;;8.00;99.90;;;;;;4991221;28;20208;-79
2023/01/08 02:40:18;;;;;;;3.00;2.80;;;8.00;99.90;;;;;;4989399;28;20206;-82
2023/01/08 02:42:51;;;;;;;3.50;3.20;;;8.00;99.90;;;;;;4971997;28;20235;-81
2023/01/08 02:45:38;;;;;;;3.30;3.10;;;8.00;99.90;;;;;;4975730;28;20230;-80
2023/01/08 02:48:11;;;;;;;3.27;3.07;;;8.00;99.90;;;;;;4991120;28;20194;-81
2023/01/08 02:50:43;;;;;;;3.40;3.20;;;7.90;99.90;;;;;;4990780;28;20706;-81
2023/01/08 02:53:14;;;;;;;2.67;2.50;;;7.90;99.90;;;;;;4990747;28;20198;-81
2023/01/08 02:55:43;;;;;;;3.23;3.03;;;7.90;99.90;;;;;;4990424;28;20245;-80
2023/01/08 02:58:12;;;;;;;3.20;3.00;;;7.90;99.90;;;;;;4990804;28;20210;-80
2023/01/08 03:00:41;;;;;;;2.90;2.73;;;7.90;99.90;;;;;;4990460;28;20753;-81
2023/01/08 03:03:12;;;;;;;3.40;3.20;;;7.90;99.90;;;;;;4990595;28;20214;-80
2023/01/08 03:05:43;;;;;;;3.30;3.10;;;7.90;99.90;;;;;;4990552;28;20241;-80
2023/01/08 03:08:11;;;;;;;3.30;3.10;;;7.80;99.90;;;;;;4990469;28;20302;-80
2023/01/08 03:10:42;;;;;;;3.40;3.20;;;7.80;99.90;;;;;;4989835;28;20336;-80
2023/01/08 03:13:16;;;;;;;3.40;3.20;;;7.80;99.90;;;;;;4989796;28;20209;-78
2023/01/08 03:15:47;;;;;;;3.40;3.20;;;7.80;99.90;;;;;;4989584;28;20740;-79
2023/01/08 03:18:18;;;;;;;3.30;3.10;;;7.80;99.90;;;;;;4990317;28;20201;-78
2023/01/08 03:20:47;;;;;;;3.30;3.10;;;7.70;99.90;;;;;;4975828;28;20201;-78
2023/01/08 03:23:16;;;;;;;3.67;3.40;;;7.70;99.90;;;;;;5000697;28;20292;-79
2023/01/08 03:25:47;;;;;;;3.63;3.33;;;7.70;99.90;;;;;;5009602;28;20324;-78
2023/01/08 03:28:21;;;;;;;3.40;3.20;;;7.70;99.90;;;;;;5002297;28;20725;-79
2023/01/08 03:30:49;;;;;;;4.33;3.50;;;7.70;99.90;;;;;;4989346;28;20228;-79
2023/01/08 03:33:17;;;;;;;3.90;3.70;;;7.70;99.90;;;;;;4989596;28;20289;-80
2023/01/08 03:35:48;;;;;;;3.67;3.37;;;7.70;99.90;;;;;;4989911;28;20299;-78
2023/01/08 03:38:19;;;;;;;3.80;3.50;;;7.70;99.90;;;;;;4989838;28;20549;-82
2023/01/08 03:40:51;;;;;;;4.00;3.80;;;7.70;99.90;;;;;;4989466;28;20321;-82
2023/01/08 03:43:19;;;;;;;3.67;3.40;;;7.70;99.90;;;;;;4989155;28;20310;-82
2023/01/08 03:45:51;;;;;;;4.00;3.70;;;7.60;99.90;;;;;;4970572;28;20269;-82
2023/01/08 03:48:19;;;;;;;4.03;3.73;;;7.60;99.90;;;;;;4970211;28;20286;-82
2023/01/08 03:50:47;;;;;;;3.67;3.33;;;7.60;99.90;;;;;;4970258;28;20328;-82
2023/01/08 03:53:14;;;;;;;3.80;3.50;;;7.60;99.90;;;;;;4981571;28;20242;-81
2023/01/08 03:55:41;;;;;;;4.00;3.60;;;7.60;99.90;;;;;;4973909;28;20281;-81
2023/01/08 03:58:08;;;;;;;3.93;3.63;;;7.60;99.90;;;;;;4989190;28;20210;-82
2023/01/08 04:00:36;;;;;;;4.20;3.80;;;7.60;99.90;;;;;;4989151;28;20298;-83
2023/01/08 04:03:03;;;;;;;4.70;3.80;;;7.60;99.90;;;;;;4989028;28;20246;-83
2023/01/08 04:05:30;;;;;;;3.80;3.60;;;7.60;99.90;;;;;;4988849;28;20661;-82
2023/01/08 04:07:57;;;;;;;3.87;3.60;;;7.60;99.90;;;;;;4989081;28;20205;-82
2023/01/08 04:10:25;;;;;;;4.00;3.80;;;7.60;99.90;;;;;;4989068;28;20332;-82
2023/01/08 04:12:51;;;;;;;3.90;3.60;;;7.60;99.90;;;;;;4989188;28;20626;-81
2023/01/08 04:15:19;;;;;;;3.83;3.63;;;7.60;99.90;;;;;;4987927;28;20238;-81
2023/01/08 04:17:47;;;;;;;3.73;3.53;;;7.60;99.90;;;;;;4977493;28;20297;-80
2023/01/08 04:20:14;;;;;;;4.07;3.77;;;7.50;99.90;;;;;;4989027;28;20293;-81
2023/01/08 04:22:40;;;;;;;4.20;3.90;;;7.50;99.90;;;;;;4988571;28;20206;-81
2023/01/08 04:25:08;;;;;;;4.37;4.03;;;7.50;99.90;;;;;;4988915;28;20297;-80
2023/01/08 04:27:35;;;;;;;4.07;3.77;;;7.50;99.90;;;;;;4988815;28;20700;-81
2023/01/08 04:30:03;;;;;;;4.23;3.90;;;7.50;99.90;;;;;;4988742;28;20665;-81
2023/01/08 04:32:30;;;;;;;3.83;3.63;;;7.50;99.90;;;;;;4988751;28;20313;-80
2023/01/08 04:34:58;;;;;;;4.17;3.77;;;7.50;99.90;;;;;;4989106;28;20308;-81
2023/01/08 04:37:25;;;;;;;3.77;3.57;;;7.50;99.90;;;;;;4984531;28;20237;-81
2023/01/08 04:39:52;;;;;;;4.50;4.20;;;7.50;99.90;;;;;;4987222;28;20238;-81
2023/01/08 04:42:18;;;;;;;4.20;3.90;;;7.50;99.90;;;;;;4988519;28;20226;-81
2023/01/08 04:44:45;;;;;;;4.90;4.50;;;7.40;99.90;;;;;;4988927;28;20208;-80
2023/01/08 04:47:12;;;;;;;4.47;4.17;;;7.40;99.90;;;;;;4972315;28;20313;-81
2023/01/08 04:49:39;;;;;;;4.43;4.13;;;7.40;99.90;;;;;;4971338;28;20207;-81
2023/01/08 04:52:07;;;;;;;4.50;4.10;;;7.40;99.90;;;;;;4988411;28;20257;-83
2023/01/08 04:54:34;;;;;;;4.20;3.80;;;7.40;99.90;;;;;;4988443;28;20687;-82
2023/01/08 04:57:01;;;;;;;4.30;4.00;;;7.40;99.90;;;;;;4988605;28;20305;-82
2023/01/08 04:59:28;;;;;;;4.10;3.80;;;7.40;99.90;;;;;;4989083;28;20289;-86
2023/01/08 05:01:56;;;;;;;4.47;3.80;;;7.40;99.90;;;;;;4989604;28;20203;-85
2023/01/08 05:04:22;;;;;;;4.10;3.80;;;7.40;99.90;;;;;;4989379;28;20206;-87
2023/01/08 05:06:49;;;;;;;4.73;4.13;;;7.40;99.90;;;;;;4989690;28;20233;-87
2023/01/08 05:09:17;;;;;;;4.13;3.83;;;7.40;99.90;;;;;;4989451;28;20313;-87
2023/01/08 05:11:44;;;;;;;4.50;4.20;;;7.40;99.90;;;;;;4989609;28;20269;-86
2023/01/08 05:14:11;;;;;;;4.03;3.83;;;7.50;99.90;;;;;;4990882;28;20301;-89
2023/01/08 05:16:38;;;;;;;4.17;3.80;;;7.40;99.90;;;;;;4990279;28;20328;-88
2023/01/08 05:19:05;;;;;;;4.10;3.80;;;7.40;99.90;;;;;;4988590;28;20245;-83
2023/01/08 05:21:32;;;;;;;4.33;4.03;;;7.40;99.90;;;;;;4988438;28;20309;-82
2023/01/08 05:23:59;;;;;;;4.03;3.73;;;7.50;99.90;;;;;;4988125;28;20680;-83
2023/01/08 05:26:27;;;;;;;4.27;3.97;;;7.50;99.90;;;;;;4988342;28;20297;-82
2023/01/08 05:28:54;;;;;;;4.43;4.03;;;7.40;99.90;;;;;;4988107;28;20290;-82
2023/01/08 05:31:21;;;;;;;3.93;3.63;;;7.50;99.90;;;;;;4988100;28;20730;-83
2023/01/08 05:33:48;;;;;;;4.20;3.90;;;7.50;99.90;;;;;;4988049;28;20764;-82
2023/01/08 05:36:15;;;;;;;4.30;3.90;;;7.50;99.90;;;;;;4987189;28;20258;-82
2023/01/08 05:38:42;;;;;;;4.03;3.83;;;7.50;99.90;;;;;;4988535;28;20295;-81
2023/01/08 05:41:10;;;;;;;4.37;4.00;;;7.50;99.90;;;;;;4988177;28;20353;-81
2023/01/08 05:43:38;;;;;;;3.93;3.63;;;7.50;99.90;;;;;;4987612;28;20210;-82
2023/01/08 05:46:05;;;;;;;5.47;4.10;;;7.50;99.90;;;;;;4984224;28;20293;-81
2023/01/08 05:48:34;;;;;;;3.97;3.67;;;7.60;99.90;;;;;;4987551;28;20771;-81
2023/01/08 05:51:01;;;;;;;4.20;3.80;;;7.60;99.90;;;;;;4987459;28;20743;-82
2023/01/08 05:53:30;;;;;;;3.83;3.63;;;7.60;99.90;;;;;;4987587;28;20216;-81
2023/01/08 05:56:01;;;;;;;3.60;3.40;;;7.60;99.90;;;;;;4991489;28;20211;-81
2023/01/08 05:58:28;;;;;;;3.80;3.50;;;7.60;99.90;;;;;;4991064;28;20818;-83
2023/01/08 06:01:02;;;;;;;4.17;3.77;;;7.60;99.90;;;;;;4991081;28;20218;-84
2023/01/08 06:03:29;;;;;;;4.20;4.00;;;7.60;99.90;;;;;;4991241;28;20206;-83
2023/01/08 06:05:59;;;;;;;3.83;3.53;;;7.60;99.90;;;;;;4991189;28;20206;-84
2023/01/08 06:08:26;;;;;;;4.00;3.70;;;7.60;99.90;;;;;;4991347;28;20297;-84
2023/01/08 06:10:52;;;;;;;4.00;3.70;;;7.60;99.90;;;;;;4991272;28;20233;-84
2023/01/08 06:13:19;;;;;;;4.37;4.07;;;7.60;99.90;;;;;;4991454;28;20216;-84
2023/01/08 06:15:46;;;;;;;3.63;3.43;;;7.60;99.90;;;;;;4990846;28;20320;-83
2023/01/08 06:18:14;;;;;;;3.80;3.50;;;7.70;99.90;;;;;;4991083;28;20297;-80
2023/01/08 06:20:41;;;;;;;3.87;3.63;;;7.70;99.90;;;;;;4991056;28;20241;-80
2023/01/08 06:23:08;;;;;;;4.33;3.93;;;7.70;99.90;;;;;;4991006;28;20249;-80
2023/01/08 06:25:35;;;;;;;3.90;3.60;;;7.70;99.90;;;;;;4991348;28;20297;-80
2023/01/08 06:28:02;;;;;;;3.93;3.63;;;7.70;99.90;;;;;;4991120;28;20301;-80
2023/01/08 06:30:29;;;;;;;3.87;3.60;;;7.70;99.90;;;;;;4983393;28;20317;-80
2023/01/08 06:32:56;;;;;;;3.73;3.53;;;7.70;99.90;;;;;;4990527;28;20293;-80
2023/01/08 06:35:25;;;;;;;3.70;3.50;;;7.70;99.90;;;;;;4990416;28;20210;-83
2023/01/08 06:37:52;;;;;;;3.70;3.50;;;7.70;99.90;;;;;;4990931;28;20300;-83
2023/01/08 06:40:18;;;;;;;4.27;3.97;;;7.70;99.90;;;;;;4990556;28;20300;-82
2023/01/08 06:42:45;;;;;;;4.13;3.87;;;7.70;99.90;;;;;;4990897;28;20293;-81
2023/01/08 06:45:12;;;;;;;4.00;3.70;;;7.80;99.90;;;;;;4990688;28;20301;-82
2023/01/08 06:47:39;;;;;;;3.90;3.60;;;7.80;99.90;;;;;;4971152;28;20261;-83
2023/01/08 06:50:07;;;;;;;3.73;3.53;;;7.80;99.90;;;;;;4970749;28;20655;-85
2023/01/08 06:52:35;;;;;;;3.53;3.33;;;7.80;99.90;;;;;;4987416;28;20289;-84
2023/01/08 06:55:03;;;;;;;3.70;3.50;;;7.80;99.90;;;;;;4990606;28;20264;-84
2023/01/08 06:57:30;;;;;;;4.10;3.80;;;7.80;99.90;;;;;;4990287;28;20206;-84
2023/01/08 06:59:57;;;;;;;3.93;3.63;;;7.80;99.90;;;;;;4990651;28;20210;-81
2023/01/08 07:02:24;;;;;;;3.60;3.40;;;7.80;99.90;;;;;;4990664;28;21163;-80
2023/01/08 07:04:51;;;;;;;3.80;3.50;;;7.80;99.90;;;;;;4990225;28;20732;-86
2023/01/08 07:07:18;;;;;;;4.20;3.90;;;7.80;99.90;;;;;;4989692;28;20285;-86
2023/01/08 07:09:46;;;;;;;3.77;3.50;;;7.80;99.90;;;;;;4990716;28;20324;-82
2023/01/08 07:12:13;;;;;;;3.57;3.37;;;7.80;99.90;;;;;;4990280;28;20240;-82
2023/01/08 07:14:41;;;;;;;3.70;3.50;;;7.80;99.90;;;;;;4989750;28;20760;-82
2023/01/08 07:17:08;;;;;;;3.63;3.33;;;7.80;99.90;;;;;;4990529;28;20289;-81
2023/01/08 07:19:34;;;;;;;3.80;3.60;;;7.80;99.90;;;;;;4980117;28;20757;-82
2023/01/08 07:22:01;;;;;;;3.33;3.13;;;7.80;99.90;;;;;;4975863;28;20210;-82
2023/01/08 07:24:28;;;;;;;3.43;3.23;;;7.80;99.90;;;;;;4990301;28;20300;-85
2023/01/08 07:26:57;;;;;;;3.60;3.27;;;7.80;99.90;;;;;;4983552;28;20297;-84
2023/01/08 07:29:24;;;;;;;3.63;3.40;;;7.80;99.90;;;;;;4990222;28;20297;-87
2023/01/08 07:31:50;;;;;;;3.70;3.40;;;7.80;99.90;;;;;;4990785;28;20320;-86
2023/01/08 07:34:17;;;;;;;3.13;3.00;;;7.80;99.90;;;;;;4990406;28;20269;-86
2023/01/08 07:36:44;;;;;;;3.90;3.53;;;7.90;99.90;;;;;;4990497;28;20645;-86
2023/01/08 07:39:11;;;;;;;4.03;3.80;;;7.90;99.90;;;;;;4990192;28;20237;-86
2023/01/08 07:41:38;;;;;;;3.97;3.67;;;7.90;99.90;;;;;;4990033;28;20226;-79
2023/01/08 07:44:06;;;;;;;3.87;3.47;;;7.80;99.90;;;;;;4979815;28;20252;-79
2023/01/08 07:46:33;;;;;;;3.90;3.60;;;7.80;99.90;;;;;;4989816;28;20298;-79
2023/01/08 07:49:00;;;;;;;3.93;3.63;;;7.80;99.90;;;;;;4989409;28;20245;-79
2023/01/08 07:51:28;;;;;;;4.90;3.50;;;7.80;99.90;;;;;;4989456;28;20265;-79
2023/01/08 07:53:56;;;;;;;3.90;3.70;;;7.80;99.90;;;;;;4989917;28;20202;-79
2023/01/08 07:56:23;;;;;;;3.90;3.70;;;7.80;99.90;;;;;;4983354;28;20214;-80
2023/01/08 07:58:50;;;;;;;4.23;3.93;;;7.80;99.90;;;;;;4989929;28;20316;-79
2023/01/08 08:01:19;;;;;;;4.00;3.70;;;7.80;99.90;;;;;;4989375;28;20309;-85
2023/01/08 08:03:45;;;;;;;3.80;3.60;;;7.80;99.90;;;;;;4990554;28;20213;-85
2023/01/08 08:06:12;;;;;;;4.03;3.73;;;7.70;99.90;;;;;;4990693;28;20209;-85
2023/01/08 08:08:39;;;;;;;3.87;3.67;;;7.80;99.90;;;;;;4989432;28;21072;-80
2023/01/08 08:11:06;;;;;;;3.83;3.53;;;7.70;99.90;;;;;;4988803;28;20328;-82
2023/01/08 08:13:33;;;;;;;4.30;4.00;;;7.80;99.90;;;;;;4989059;28;20212;-85
2023/01/08 08:16:04;;;;;;;4.43;4.03;;;7.70;99.90;;;;;;4988723;28;20681;-82
2023/01/08 08:18:32;;;;;;;4.40;4.00;;;7.70;99.90;;;;;;4987886;28;20206;-86
2023/01/08 08:20:59;;;;;;;4.00;3.70;;;7.70;99.90;;;;;;4988385;28;20241;-68
2023/01/08 08:23:26;;;;;;;4.37;4.07;;;7.80;99.90;;;;;;4981391;28;20574;-68
2023/01/08 08:25:53;;;;;;;4.27;3.97;;;7.70;99.90;;;;;;4988261;28;20656;-68
2023/01/08 08:28:20;;;;;;;4.80;4.30;;;7.70;99.90;;;;;;4988018;28;20205;-68
2023/01/08 08:30:47;;;;;;;4.23;3.93;;;7.70;99.90;;;;;;4988016;28;20241;-68
2023/01/08 08:33:13;;;;;;;4.80;4.50;;;7.70;99.90;;;;;;4986842;28;20206;-68
2023/01/08 08:35:49;;;;;;;4.57;4.17;;;7.70;99.90;;;;;;4987991;28;21030;-68
2023/01/08 08:38:15;;;;;;;3.93;3.67;;;7.70;99.90;;;;;;4987886;28;20201;-68
2023/01/08 08:40:42;;;;;;;4.50;4.20;;;7.70;99.90;;;;;;4988341;28;20325;-68
2023/01/08 08:43:10;;;;;;;3.87;3.67;;;7.70;99.90;;;;;;4987577;28;20293;-68
2023/01/08 08:45:37;;;;;;;4.30;3.90;;;7.70;99.90;;;;;;4987802;28;20300;-68
2023/01/08 08:48:06;;;;;;;4.53;4.13;;;7.70;99.90;;;;;;4987801;28;20210;-68
2023/01/08 08:50:33;;;;;;;4.33;3.97;;;7.70;99.90;;;;;;4986747;28;20621;-69
2023/01/08 08:53:02;;;;;;;4.07;3.77;;;7.70;99.90;;;;;;4978711;28;20313;-68
2023/01/08 08:55:29;;;;;;;4.27;3.87;;;7.70;99.90;;;;;;4986506;28;20213;-68
2023/01/08 08:58:04;;;;;;;3.87;3.50;;;7.70;99.90;;;;;;4986333;28;20297;-68
2023/01/08 09:00:31;;;;;;;4.10;3.87;;;7.80;99.90;;;;;;4986047;28;20197;-69
2023/01/08 09:02:58;;;;;;;4.80;3.83;;;7.70;99.90;;;;;;4985701;28;20273;-68
2023/01/08 09:05:25;;;;;;;3.90;3.60;;;7.70;99.90;;;;;;4966676;28;20598;-68
2023/01/08 09:07:53;;;;;;;3.90;3.70;;;7.70;99.90;;;;;;4981354;28;20206;-70
2023/01/08 09:10:21;;;;;;;4.20;3.90;;;7.80;99.90;;;;;;4986058;28;20202;-70
2023/01/08 09:12:48;;;;;;;5.13;4.60;;;7.80;99.90;;;;;;4986040;28;20280;-67
2023/01/08 09:15:15;;;;;;;4.00;3.70;;;7.80;99.90;;;;;;4985000;28;20768;-69
2023/01/08 09:17:42;;;;;;;3.93;3.67;;;7.80;99.90;;;;;;4980283;28;20672;-69
2023/01/08 09:20:10;;;;;;;3.60;3.40;;;7.80;99.90;;;;;;4985433;28;20218;-69
2023/01/08 09:22:38;;;;;;;3.50;3.30;;;7.80;99.90;;;;;;4986113;28;20214;-68
2023/01/08 09:25:05;;;;;;;4.10;3.77;;;7.80;99.90;;;;;;4985957;28;20317;-68
2023/01/08 09:27:33;;;;;;;3.87;3.67;;;7.80;99.90;;;;;;4985294;28;20325;-68
2023/01/08 09:30:00;;;;;;;3.63;3.43;;;7.80;99.90;;;;;;4989888;28;20289;-68
2023/01/08 09:32:27;;;;;;;3.80;3.47;;;7.80;99.90;;;;;;4989261;28;20236;-69
2023/01/08 09:34:54;;;;;;;4.03;3.77;;;7.80;99.90;;;;;;4989514;28;20218;-68
2023/01/08 09:37:22;;;;;;;4.13;3.83;;;7.90;99.90;;;;;;4989632;28;20225;-68
2023/01/08 09:39:49;;;;;;;3.80;3.50;;;7.90;99.90;;;;;;4989627;28;20206;-69
2023/01/08 09:42:20;;;;;;;3.50;3.30;;;7.90;99.90;;;;;;4989432;28;20234;-68
2023/01/08 09:44:51;;;;;;;3.97;3.67;;;7.90;99.90;;;;;;4988229;28;20200;-68
2023/01/08 09:47:25;;;;;;;3.77;3.50;;;7.80;99.90;;;;;;4979057;28;20260;-68
2023/01/08 09:49:56;;;;;;;3.93;3.63;;;7.90;99.90;;;;;;4988332;28;20206;-68
2023/01/08 09:52:23;;;;;;;3.67;3.47;;;7.90;99.90;;;;;;4987523;28;20232;-68
2023/01/08 09:54:50;;;;;;;4.50;4.17;;;7.80;99.90;;;;;;4988269;28;20297;-68
2023/01/08 09:57:20;;;;;;;3.90;3.60;;;7.80;99.90;;;;;;4988771;28;20710;-68
2023/01/08 09:59:48;;;;;;;3.97;3.70;;;7.80;99.90;;;;;;4988299;28;20204;-68
2023/01/08 10:02:17;;;;;;;5.43;3.60;;;7.70;99.90;;;;;;4988552;28;20619;-68
2023/01/08 10:04:44;;;;;;;3.77;3.47;;;7.70;99.90;;;;;;4989118;28;20338;-70
2023/01/08 10:07:20;;;;;;;4.00;3.70;;;7.70;99.90;;;;;;4988770;28;20679;-71
2023/01/08 10:09:48;;;;;;;3.90;3.50;;;7.80;99.90;;;;;;4989285;28;20295;-70
2023/01/08 10:12:16;;;;;;;3.73;3.43;;;7.80;99.90;;;;;;4988879;28;20238;-71
2023/01/08 10:14:48;;;;;;;3.73;3.43;;;7.70;99.90;;;;;;4985766;28;20294;-70
2023/01/08 10:17:28;;;;;;;4.93;3.93;;;7.80;99.90;;;;;;4985457;28;20214;-70
2023/01/08 10:19:55;;;;;;;4.10;3.80;;;7.80;99.90;;;;;;4989101;28;20317;-71
2023/01/08 10:22:25;;;;;;;4.10;3.90;;;7.80;99.90;;;;;;4989211;28;20256;-70
2023/01/08 10:24:52;;;;;;;5.27;4.00;;;7.80;99.90;;;;;;4989080;28;20287;-71
2023/01/08 10:27:21;;;;;;;3.93;3.63;;;7.80;99.90;;;;;;4988474;28;20290;-70
2023/01/08 10:29:50;;;;;;;3.93;3.67;;;7.90;99.90;;;;;;4988684;28;20313;-69
2023/01/08 10:32:20;;;;;;;4.13;3.83;;;7.90;99.90;;;;;;4988208;28;20236;-69
2023/01/08 10:34:49;;;;;;;4.33;4.03;;;7.90;99.90;;;;;;4988239;28;20293;-69
2023/01/08 10:37:23;;;;;;;4.63;4.13;;;7.90;99.90;;;;;;4988021;28;20709;-70
2023/01/08 10:39:51;;;;;;;4.67;4.03;;;7.90;99.90;;;;;;4988009;28;20284;-69
2023/01/08 10:42:20;;;;;;;4.83;3.63;;;8.00;99.90;;;;;;4987902;28;20323;-70
2023/01/08 10:44:56;;;;;;;4.23;3.97;;;8.00;99.90;;;;;;4987610;28;20334;-69
2023/01/08 10:47:26;;;;;;;4.37;4.07;;;8.00;99.90;;;;;;4987673;28;20304;-70
2023/01/08 10:49:54;;;;;;;3.87;3.57;;;8.00;99.90;;;;;;4987075;28;20228;-70
2023/01/08 10:52:25;;;;;;;4.30;4.00;;;8.00;99.90;;;;;;4987448;28;20325;-69
2023/01/08 10:54:52;;;;;;;4.67;4.30;;;8.00;99.90;;;;;;4976931;28;20199;-69
2023/01/08 10:57:25;;;;;;;4.93;4.53;;;8.00;99.90;;;;;;4985101;28;20642;-69
2023/01/08 10:59:52;;;;;;;5.37;4.97;;;8.00;99.90;;;;;;4988075;28;20210;-69
2023/01/08 11:02:35;;;;;;;5.67;5.27;;;8.00;99.90;;;;;;4987470;28;20661;-69
2023/01/08 11:05:04;;;;;;;4.47;4.07;;;8.00;99.90;;;;;;4987460;28;20293;-69
2023/01/08 11:07:34;;;;;;;4.20;3.90;;;8.00;99.90;;;;;;4987561;28;20214;-69
2023/01/08 11:10:03;;;;;;;4.40;4.00;;;8.00;99.90;;;;;;4987592;28;20827;-69
2023/01/08 11:12:36;;;;;;;5.17;4.20;;;8.10;99.90;;;;;;4987589;28;20238;-69
2023/01/08 11:15:06;;;;;;;4.53;4.13;;;8.10;99.90;;;;;;4987175;28;20792;-69
2023/01/08 11:17:35;;;;;;;3.93;3.63;;;8.10;99.90;;;;;;4986723;28;20214;-69
2023/01/08 11:20:22;;;;;;;4.87;4.47;;;8.10;99.90;;;;;;4987452;28;20301;-69
2023/01/08 11:22:49;;;;;;;4.67;4.27;;;8.10;99.90;;;;;;4987438;28;20317;-70
2023/01/08 11:25:27;;;;;;;4.07;3.77;;;8.20;99.90;;;;;;4986798;28;20672;-69
2023/01/08 11:27:55;;;;;;;4.37;4.00;;;8.20;99.90;;;;;;4987085;28;20198;-70
2023/01/08 11:30:24;;;;;;;4.23;3.93;;;8.20;99.90;;;;;;4987256;28;20237;-69
2023/01/08 11:32:58;;;;;;;4.00;3.70;;;8.20;99.90;;;;;;4987488;28;20329;-69
2023/01/08 11:35:27;;;;;;;4.40;4.10;;;8.20;99.90;;;;;;4987563;28;20261;-70
2023/01/08 11:37:58;;;;;;;3.90;3.60;;;8.20;99.90;;;;;;4988630;28;20206;-71
2023/01/08 11:40:33;;;;;;;4.50;4.10;;;8.30;99.90;;;;;;4988830;28;20288;-71
2023/01/08 11:43:31;;;;;;;4.10;3.70;;;8.30;99.90;;;;;;4986440;28;20673;-70
2023/01/08 11:46:16;;;;;;;4.57;4.27;;;8.30;99.90;;;;;;4982436;28;20207;-70
2023/01/08 11:49:05;;;;;;;4.20;3.90;;;8.30;99.90;;;;;;4981023;28;20187;-70
2023/01/08 11:51:51;;;;;;;4.43;4.10;;;8.30;99.90;;;;;;4980034;28;20221;-70
2023/01/08 11:54:34;;;;;;;4.33;3.93;;;8.30;99.90;;;;;;4985419;28;20564;-70
2023/01/08 11:57:17;;;;;;;4.50;4.20;;;8.30;99.90;;;;;;4982535;28;20631;-70
2023/01/08 12:00:00;;;;;;;4.67;4.27;;;8.30;99.90;;;;;;4986932;28;20542;-70
2023/01/08 12:02:36;;;;;;;4.33;4.03;;;8.30;99.90;;;;;;4988344;28;20272;-70
2023/01/08 12:05:30;;;;;;;4.37;4.03;;;8.40;99.90;;;;;;4988703;28;20289;-70
2023/01/08 12:08:03;;;;;;;4.20;3.80;;;8.30;99.90;;;;;;4980464;28;20289;-70
2023/01/08 12:10:40;;;;;;;4.23;3.93;;;8.30;99.90;;;;;;4988312;28;20705;-73
2023/01/08 12:13:21;;;;;;;3.83;3.63;;;8.30;99.90;;;;;;4988282;28;21049;-72
2023/01/08 12:15:58;;;;;;;5.43;3.80;;;8.30;99.90;;;;;;4975788;28;21012;-72
2023/01/08 12:18:46;;;;;;;3.90;3.60;;;8.40;99.90;;;;;;4985185;28;20966;-72
2023/01/08 12:21:23;;;;;;;4.20;3.90;;;8.40;99.90;;;;;;4986892;28;20195;-72
2023/01/08 12:24:18;;;;;;;5.07;3.60;;;8.40;99.90;;;;;;4979148;28;20208;-71
2023/01/08 12:26:52;;;;;;;4.20;3.90;;;8.40;99.90;;;;;;4980318;28;20214;-72
2023/01/08 12:29:37;;;;;;;3.73;3.53;;;8.40;99.90;;;;;;4987002;28;20302;-72
2023/01/08 12:32:22;;;;;;;4.07;3.83;;;8.40;99.90;;;;;;4984922;28;20647;-72
2023/01/08 12:34:58;;;;;;;4.53;4.13;;;8.40;99.90;;;;;;4981183;28;20202;-72
2023/01/08 12:37:31;;;;;;;4.13;3.70;;;8.40;99.90;;;;;;4986853;28;20186;-72
2023/01/08 12:40:06;;;;;;;4.20;4.00;;;8.40;99.90;;;;;;4986023;28;20784;-72
2023/01/08 12:42:35;;;;;;;3.90;3.57;;;8.40;99.90;;;;;;4977721;28;20272;-72
2023/01/08 12:45:06;;;;;;;3.80;3.40;;;8.40;99.90;;;;;;4986599;28;20704;-72
2023/01/08 12:47:36;;;;;;;4.17;3.50;;;8.40;99.90;;;;;;4977031;28;20230;-72
2023/01/08 12:50:23;;;;;;;4.73;4.17;;;8.30;99.90;;;;;;4981484;28;20305;-72
2023/01/08 12:52:55;;;;;;;4.43;3.80;;;8.30;99.90;;;;;;4985497;28;20262;-69
2023/01/08 12:55:35;;;;;;;4.53;4.23;;;8.40;99.90;;;;;;4977798;28;20204;-70
2023/01/08 12:58:13;;;;;;;4.03;3.73;;;8.30;99.90;;;;;;4985579;28;20290;-70
2023/01/08 13:00:46;;;;;;;4.40;4.00;;;8.40;99.90;;;;;;4987166;28;20209;-70
2023/01/08 13:03:18;;;;;;;4.30;3.90;;;8.40;99.90;;;;;;4983241;28;20784;-70
2023/01/08 13:05:45;;;;;;;4.03;3.73;;;8.30;99.90;;;;;;4990703;28;20880;-70
2023/01/08 13:08:29;;;;;;;4.40;4.10;;;8.30;99.90;;;;;;4990862;28;20233;-70
2023/01/08 13:10:57;;;;;;;3.93;3.73;;;8.30;99.90;;;;;;4990886;28;20489;-70